createdAt,value
2023-02-16T00:00:29.253Z,8.30
2023-02-16T00:02:56.155Z,8.30
2023-02-16T00:05:34.949Z,8.20
2023-02-16T00:08:02.977Z,8.20
2023-02-16T00:10:36.639Z,8.30
2023-02-16T00:13:43.478Z,8.20
2023-02-16T00:16:24.911Z,8.30
2023-02-16T00:18:52.948Z,8.20
2023-02-16T00:21:20.499Z,8.30
2023-02-16T00:23:48.489Z,8.40
2023-02-16T00:26:20.580Z,8.60
2023-02-16T00:28:51.256Z,8.70
2023-02-16T00:31:23.451Z,8.80
2023-02-16T00:33:50.607Z,8.80
2023-02-16T00:36:17.405Z,8.80
2023-02-16T00:38:45.585Z,8.90
2023-02-16T00:41:42.591Z,9.00
2023-02-16T00:44:29.209Z,9.10
2023-02-16T00:46:56.474Z,9.20
2023-02-16T00:49:23.335Z,9.20
2023-02-16T00:51:50.401Z,9.20
2023-02-16T00:54:17.285Z,9.10
2023-02-16T00:56:46.028Z,9.20
2023-02-16T00:59:18.269Z,9.30
2023-02-16T01:01:45.791Z,9.10
2023-02-16T01:04:21.026Z,9.10
2023-02-16T01:07:06.957Z,9.20
2023-02-16T01:09:53.052Z,9.20
2023-02-16T01:12:21.736Z,9.10
2023-02-16T01:14:52.567Z,8.80
2023-02-16T01:17:20.032Z,8.80
2023-02-16T01:19:47.108Z,8.90
2023-02-16T01:22:13.863Z,8.80
2023-02-16T01:24:40.739Z,8.50
2023-02-16T01:27:12.470Z,8.60
2023-02-16T01:29:39.478Z,8.50
2023-02-16T01:32:06.424Z,8.60
2023-02-16T01:34:33.320Z,8.40
2023-02-16T01:37:00.106Z,8.30
2023-02-16T01:39:26.904Z,8.40
2023-02-16T01:42:15.302Z,8.50
2023-02-16T01:44:48.117Z,8.50
2023-02-16T01:47:34.513Z,8.40
2023-02-16T01:50:16.855Z,8.50
2023-02-16T01:52:48.026Z,8.40
2023-02-16T01:55:25.998Z,8.70
2023-02-16T01:57:56.780Z,8.70
2023-02-16T02:00:28.362Z,8.70
2023-02-16T02:03:20.684Z,8.80
2023-02-16T02:05:51.307Z,8.80
2023-02-16T02:08:28.584Z,8.90
2023-02-16T02:11:35.719Z,8.80
2023-02-16T02:14:07.391Z,8.70
2023-02-16T02:16:34.685Z,8.80
2023-02-16T02:19:01.490Z,9.00
2023-02-16T02:22:11.606Z,9.00
2023-02-16T02:25:22.859Z,8.80
2023-02-16T02:27:52.522Z,8.90
2023-02-16T02:30:43.855Z,8.90
2023-02-16T02:33:19.740Z,9.00
2023-02-16T02:36:11.356Z,9.10
2023-02-16T02:38:59.780Z,9.20
2023-02-16T02:42:06.737Z,9.20
2023-02-16T02:44:50.202Z,9.20
2023-02-16T02:47:17.351Z,9.20
2023-02-16T02:49:54.987Z,9.20
2023-02-16T02:52:25.765Z,9.40
2023-02-16T02:55:23.747Z,9.40
2023-02-16T02:58:09.755Z,9.50
2023-02-16T03:00:49.857Z,9.40
2023-02-16T03:03:37.231Z,9.40
2023-02-16T03:06:13.134Z,8.80
2023-02-16T03:08:43.427Z,9.50
2023-02-16T03:11:47.979Z,9.60
2023-02-16T03:14:29.219Z,9.60
2023-02-16T03:17:17.566Z,9.70
2023-02-16T03:20:06.359Z,9.70
2023-02-16T03:22:54.037Z,9.50
2023-02-16T03:25:42.446Z,9.60
2023-02-16T03:28:31.071Z,9.50
2023-02-16T03:30:59.496Z,9.50
2023-02-16T03:33:27.566Z,9.50
2023-02-16T03:35:54.615Z,9.40
2023-02-16T03:38:22.235Z,9.40
2023-02-16T03:40:51.222Z,9.40
2023-02-16T03:43:18.048Z,9.50
2023-02-16T03:45:45.888Z,9.40
2023-02-16T03:48:13.117Z,9.60
2023-02-16T03:50:41.129Z,9.70
2023-02-16T03:53:08.222Z,9.70
2023-02-16T03:55:40.126Z,9.50
2023-02-16T03:58:08.833Z,9.40
2023-02-16T04:00:37.114Z,9.40
2023-02-16T04:03:05.151Z,9.40
2023-02-16T04:05:32.980Z,9.50
2023-02-16T04:07:59.942Z,9.50
2023-02-16T04:10:26.732Z,9.50
2023-02-16T04:12:53.671Z,9.30
2023-02-16T04:15:23.204Z,9.30
2023-02-16T04:17:50.120Z,9.20
2023-02-16T04:20:19.749Z,9.10
2023-02-16T04:22:47.250Z,9.20
2023-02-16T04:25:14.950Z,8.90
2023-02-16T04:27:42.593Z,9.10
2023-02-16T04:30:12.900Z,9.10
2023-02-16T04:32:39.820Z,9.10
2023-02-16T04:35:07.871Z,9.10
2023-02-16T04:37:35.262Z,9.00
2023-02-16T04:40:02.636Z,9.00
2023-02-16T04:42:29.429Z,8.80
2023-02-16T04:44:56.542Z,8.70
2023-02-16T04:47:25.880Z,8.90
2023-02-16T04:49:53.342Z,8.90
2023-02-16T04:52:21.159Z,9.00
2023-02-16T04:54:47.979Z,9.10
2023-02-16T04:57:15.906Z,9.20
2023-02-16T04:59:42.681Z,9.50
2023-02-16T05:02:09.481Z,9.50
2023-02-16T05:04:38.946Z,9.50
2023-02-16T05:07:05.713Z,9.60
2023-02-16T05:09:32.444Z,9.50
2023-02-16T05:12:17.710Z,9.70
2023-02-16T05:14:47.376Z,9.60
2023-02-16T05:17:18.351Z,9.70
2023-02-16T05:19:47.677Z,9.80
2023-02-16T05:22:15.863Z,9.80
2023-02-16T05:24:43.489Z,9.70
2023-02-16T05:27:13.989Z,9.70
2023-02-16T05:29:40.810Z,9.70
2023-02-16T05:32:07.741Z,9.90
2023-02-16T05:34:34.588Z,9.70
2023-02-16T05:37:01.458Z,9.80
2023-02-16T05:39:28.373Z,9.80
2023-02-16T05:41:55.320Z,9.70
2023-02-16T05:44:22.098Z,9.70
2023-02-16T05:46:48.855Z,9.70
2023-02-16T05:49:16.091Z,9.50
2023-02-16T05:51:43.424Z,9.70
2023-02-16T05:54:10.952Z,9.50
2023-02-16T05:56:37.970Z,9.60
2023-02-16T05:59:05.056Z,9.50
2023-02-16T06:01:31.763Z,9.50
2023-02-16T06:03:58.623Z,9.70
2023-02-16T06:06:25.393Z,9.60
2023-02-16T06:08:52.224Z,9.40
2023-02-16T06:11:37.222Z,9.40
2023-02-16T06:14:10.242Z,9.40
2023-02-16T06:16:39.814Z,9.10
2023-02-16T06:19:07.421Z,9.10
2023-02-16T06:21:34.669Z,9.20
2023-02-16T06:24:01.582Z,9.10
2023-02-16T06:26:28.494Z,9.00
2023-02-16T06:28:56.162Z,9.00
2023-02-16T06:31:25.071Z,9.20
2023-02-16T06:33:52.612Z,9.20
2023-02-16T06:36:20.090Z,9.30
2023-02-16T06:38:47.519Z,9.30
2023-02-16T06:41:31.210Z,9.30
2023-02-16T06:44:03.106Z,9.40
2023-02-16T06:46:30.281Z,9.50
2023-02-16T06:48:57.441Z,9.50
2023-02-16T06:51:24.174Z,9.50
2023-02-16T06:53:51.037Z,9.10
2023-02-16T06:56:17.918Z,9.40
2023-02-16T06:58:44.680Z,9.40
2023-02-16T07:01:11.779Z,9.50
2023-02-16T07:03:38.713Z,9.60
2023-02-16T07:06:06.447Z,9.50
2023-02-16T07:08:34.927Z,9.50
2023-02-16T07:11:02.639Z,9.70
2023-02-16T07:13:29.398Z,9.50
2023-02-16T07:15:56.443Z,9.50
2023-02-16T07:18:23.263Z,9.50
2023-02-16T07:20:51.005Z,9.50
2023-02-16T07:23:18.030Z,9.40
2023-02-16T07:25:44.940Z,9.40
2023-02-16T07:28:11.831Z,9.30
2023-02-16T07:30:38.667Z,9.40
2023-02-16T07:33:06.695Z,9.40
2023-02-16T07:35:34.666Z,9.40
2023-02-16T07:38:01.568Z,9.60
2023-02-16T07:40:28.518Z,9.60
2023-02-16T07:42:55.713Z,9.50
2023-02-16T07:45:22.548Z,9.30
2023-02-16T07:47:49.383Z,9.50
2023-02-16T07:50:16.659Z,9.70
2023-02-16T07:52:43.450Z,9.60
2023-02-16T07:55:11.285Z,9.60
2023-02-16T07:57:39.647Z,9.50
2023-02-16T08:00:08.021Z,9.60
2023-02-16T08:02:35.022Z,9.70
2023-02-16T08:05:02.037Z,9.70
2023-02-16T08:07:28.878Z,9.90
2023-02-16T08:09:55.655Z,10.10
2023-02-16T08:12:22.703Z,10.00
2023-02-16T08:14:50.634Z,10.20
2023-02-16T08:17:17.564Z,10.20
2023-02-16T08:19:44.316Z,9.90
2023-02-16T08:22:12.273Z,10.00
2023-02-16T08:24:40.207Z,10.10
2023-02-16T08:27:07.417Z,10.20
2023-02-16T08:29:34.284Z,10.10
2023-02-16T08:32:01.619Z,10.40
2023-02-16T08:34:30.534Z,10.00
2023-02-16T08:36:57.819Z,10.30
2023-02-16T08:39:29.986Z,10.00
2023-02-16T08:41:58.953Z,10.20
2023-02-16T08:44:26.554Z,10.10
2023-02-16T08:46:55.729Z,9.90
2023-02-16T08:49:24.135Z,10.10
2023-02-16T08:51:57.248Z,10.20
2023-02-16T08:54:30.633Z,10.30
2023-02-16T08:56:59.008Z,10.30
2023-02-16T08:59:28.488Z,10.30
2023-02-16T09:01:58.208Z,10.30
2023-02-16T09:04:26.300Z,10.20
2023-02-16T09:06:54.337Z,10.30
2023-02-16T09:09:21.317Z,10.50
2023-02-16T09:11:49.797Z,10.60
2023-02-16T09:14:20.124Z,10.60
2023-02-16T09:16:49.790Z,10.70
2023-02-16T09:19:19.614Z,10.60
2023-02-16T09:21:48.697Z,10.60
2023-02-16T09:24:16.147Z,10.40
2023-02-16T09:26:44.897Z,10.30
2023-02-16T09:29:15.190Z,10.50
2023-02-16T09:31:45.436Z,10.50
2023-02-16T09:34:21.315Z,10.30
2023-02-16T09:36:48.927Z,10.70
2023-02-16T09:39:17.056Z,10.90
2023-02-16T09:41:57.646Z,10.80
2023-02-16T09:44:54.663Z,10.80
2023-02-16T09:47:33.866Z,10.70
2023-02-16T09:50:05.303Z,10.80
2023-02-16T09:52:41.047Z,10.80
2023-02-16T09:55:16.293Z,10.80
2023-02-16T09:57:49.036Z,11.00
2023-02-16T10:00:23.578Z,11.00
2023-02-16T10:03:26.690Z,11.20
2023-02-16T10:06:01.384Z,11.10
2023-02-16T10:08:41.657Z,11.20
2023-02-16T10:11:36.073Z,11.00
2023-02-16T10:14:25.759Z,11.20
2023-02-16T10:17:01.306Z,11.10
2023-02-16T10:19:38.375Z,11.20
2023-02-16T10:22:11.464Z,11.20
2023-02-16T10:24:49.864Z,11.30
2023-02-16T10:27:17.151Z,11.50
2023-02-16T10:29:43.923Z,11.70
2023-02-16T10:32:25.966Z,11.60
2023-02-16T10:35:11.294Z,11.60
2023-02-16T10:38:13.219Z,11.80
2023-02-16T10:40:57.992Z,11.90
2023-02-16T10:43:40.171Z,12.00
2023-02-16T10:46:10.072Z,11.80
2023-02-16T10:48:37.931Z,11.50
2023-02-16T10:51:17.982Z,11.80
2023-02-16T10:54:06.144Z,11.90
2023-02-16T10:56:33.042Z,11.90
2023-02-16T10:59:02.229Z,12.10
2023-02-16T11:01:43.146Z,12.20
2023-02-16T11:04:32.568Z,12.20
2023-02-16T11:07:08.471Z,12.20
2023-02-16T11:09:36.634Z,12.20
2023-02-16T11:12:22.922Z,12.40
2023-02-16T11:14:52.895Z,12.50
2023-02-16T11:17:23.448Z,12.40
2023-02-16T11:20:01.708Z,12.30
2023-02-16T11:22:38.194Z,12.40
2023-02-16T11:25:26.331Z,12.70
2023-02-16T11:27:57.262Z,12.70
2023-02-16T11:30:42.133Z,12.40
2023-02-16T11:33:23.727Z,12.50
2023-02-16T11:35:50.734Z,12.80
2023-02-16T11:38:33.003Z,12.70
2023-02-16T11:41:03.391Z,12.60
2023-02-16T11:43:34.883Z,12.50
2023-02-16T11:46:12.631Z,12.80
2023-02-16T11:48:39.444Z,13.20
2023-02-16T11:51:08.965Z,12.90
2023-02-16T11:53:40.682Z,12.70
2023-02-16T11:56:22.999Z,12.70
2023-02-16T11:59:20.759Z,12.80
2023-02-16T12:02:09.433Z,12.80
2023-02-16T12:05:15.747Z,12.80
2023-02-16T12:08:06.492Z,13.00
2023-02-16T12:10:59.840Z,12.60
2023-02-16T12:13:40.273Z,12.60
2023-02-16T12:16:28.155Z,13.00
2023-02-16T12:19:24.514Z,12.90
2023-02-16T12:22:05.821Z,13.00
2023-02-16T12:25:22.576Z,13.00
2023-02-16T12:28:26.049Z,13.30
2023-02-16T12:31:17.306Z,13.30
2023-02-16T12:34:20.063Z,13.10
2023-02-16T12:37:04.279Z,13.50
2023-02-16T12:39:46.320Z,13.60
2023-02-16T12:42:33.050Z,13.60
2023-02-16T12:45:10.135Z,13.70
2023-02-16T12:47:52.454Z,13.40
2023-02-16T12:50:24.313Z,13.30
2023-02-16T12:53:14.521Z,13.30
2023-02-16T12:55:44.210Z,13.30
2023-02-16T12:58:23.187Z,13.30
2023-02-16T13:00:57.259Z,13.40
2023-02-16T13:03:55.364Z,13.40
2023-02-16T13:06:40.291Z,13.30
2023-02-16T13:09:43.407Z,13.30
2023-02-16T13:12:22.111Z,13.30
2023-02-16T13:15:00.567Z,13.40
2023-02-16T13:17:39.590Z,13.30
2023-02-16T13:20:17.015Z,13.20
2023-02-16T13:23:26.963Z,13.20
2023-02-16T13:26:18.198Z,13.10
2023-02-16T13:28:51.442Z,13.30
2023-02-16T13:31:33.183Z,13.50
2023-02-16T13:34:38.303Z,13.60
2023-02-16T13:37:33.766Z,13.60
2023-02-16T13:40:19.465Z,13.30
2023-02-16T13:42:54.840Z,13.00
2023-02-16T13:45:26.183Z,12.90
2023-02-16T13:47:55.500Z,12.90
2023-02-16T13:50:22.378Z,12.80
2023-02-16T13:52:51.925Z,13.00
2023-02-16T13:55:30.002Z,13.20
2023-02-16T13:58:01.241Z,13.20
2023-02-16T14:00:42.074Z,13.10
2023-02-16T14:03:17.219Z,13.80
2023-02-16T14:05:49.920Z,13.20
2023-02-16T14:08:31.939Z,13.20
2023-02-16T14:11:08.339Z,13.30
2023-02-16T14:13:38.668Z,13.50
2023-02-16T14:16:11.337Z,13.20
2023-02-16T14:19:02.868Z,13.20
2023-02-16T14:21:39.939Z,13.50
2023-02-16T14:24:31.339Z,13.40
2023-02-16T14:27:01.589Z,13.40
2023-02-16T14:29:50.139Z,13.30
2023-02-16T14:32:38.672Z,13.40
2023-02-16T14:35:19.483Z,13.50
2023-02-16T14:38:07.129Z,13.40
2023-02-16T14:40:45.301Z,13.50
2023-02-16T14:43:41.271Z,13.60
2023-02-16T14:46:45.674Z,13.70
2023-02-16T14:49:50.966Z,13.70
2023-02-16T14:52:47.951Z,14.00
2023-02-16T14:55:40.875Z,13.60
2023-02-16T14:58:17.025Z,13.60
2023-02-16T15:00:50.870Z,13.60
2023-02-16T15:03:23.604Z,13.60
2023-02-16T15:06:02.232Z,13.60
2023-02-16T15:08:39.394Z,13.60
2023-02-16T15:11:19.566Z,13.40
2023-02-16T15:13:46.955Z,13.60
2023-02-16T15:16:16.994Z,13.50
2023-02-16T15:18:53.338Z,13.60
2023-02-16T15:21:25.086Z,13.70
2023-02-16T15:23:54.603Z,13.50
2023-02-16T15:26:33.479Z,13.40
2023-02-16T15:29:22.599Z,13.40
2023-02-16T15:31:50.094Z,13.50
2023-02-16T15:34:36.244Z,13.50
2023-02-16T15:37:24.532Z,13.40
2023-02-16T15:40:12.163Z,13.50
2023-02-16T15:42:41.853Z,13.40
2023-02-16T15:45:27.912Z,13.50
2023-02-16T15:48:12.408Z,13.10
2023-02-16T15:50:39.309Z,13.20
2023-02-16T15:53:07.054Z,13.20
2023-02-16T15:55:33.993Z,13.40
2023-02-16T15:58:04.644Z,13.60
2023-02-16T16:00:31.663Z,13.40
2023-02-16T16:02:58.448Z,13.60
2023-02-16T16:05:36.250Z,13.60
2023-02-16T16:08:04.650Z,13.50
2023-02-16T16:10:36.398Z,13.50
2023-02-16T16:13:23.303Z,13.70
2023-02-16T16:15:51.613Z,13.60
2023-02-16T16:18:39.630Z,13.70
2023-02-16T16:21:14.523Z,13.50
2023-02-16T16:23:52.314Z,13.30
2023-02-16T16:26:20.843Z,13.20
2023-02-16T16:28:47.944Z,13.10
2023-02-16T16:31:20.961Z,13.20
2023-02-16T16:33:58.661Z,13.10
2023-02-16T16:36:30.774Z,13.30
2023-02-16T16:39:16.683Z,13.40
2023-02-16T16:42:08.653Z,13.30
2023-02-16T16:44:41.886Z,13.20
2023-02-16T16:47:48.844Z,13.30
2023-02-16T16:50:15.592Z,13.00
2023-02-16T16:52:45.736Z,12.80
2023-02-16T16:55:21.817Z,12.90
2023-02-16T16:57:56.587Z,13.00
2023-02-16T17:00:26.120Z,12.80
2023-02-16T17:02:53.174Z,12.60
2023-02-16T17:05:20.742Z,12.70
2023-02-16T17:07:52.017Z,12.70
2023-02-16T17:10:20.892Z,12.60
2023-02-16T17:12:51.332Z,12.50
2023-02-16T17:15:43.754Z,12.60
2023-02-16T17:18:19.475Z,12.50
2023-02-16T17:20:46.857Z,12.70
2023-02-16T17:23:15.560Z,12.50
2023-02-16T17:25:43.065Z,12.40
2023-02-16T17:28:12.054Z,12.10
2023-02-16T17:30:39.787Z,12.10
2023-02-16T17:33:07.217Z,12.00
2023-02-16T17:35:35.382Z,11.90
2023-02-16T17:38:11.793Z,12.00
2023-02-16T17:40:40.150Z,12.00
2023-02-16T17:43:18.238Z,12.00
2023-02-16T17:45:46.267Z,12.00
2023-02-16T17:48:21.185Z,11.80
2023-02-16T17:50:49.417Z,11.70
2023-02-16T17:53:19.718Z,11.90
2023-02-16T17:55:51.934Z,11.70
2023-02-16T17:58:20.003Z,11.70
2023-02-16T18:00:47.207Z,10.40
2023-02-16T18:03:14.371Z,11.60
2023-02-16T18:05:41.467Z,11.70
2023-02-16T18:08:08.707Z,11.60
2023-02-16T18:10:41.310Z,11.60
2023-02-16T18:13:09.742Z,10.20
2023-02-16T18:15:36.548Z,11.50
2023-02-16T18:18:03.553Z,11.40
2023-02-16T18:20:30.458Z,11.40
2023-02-16T18:22:57.247Z,11.50
2023-02-16T18:25:24.146Z,11.40
2023-02-16T18:27:51.057Z,11.30
2023-02-16T18:30:18.310Z,11.30
2023-02-16T18:32:45.717Z,11.30
2023-02-16T18:35:14.248Z,11.30
2023-02-16T18:37:41.800Z,11.20
2023-02-16T18:40:12.592Z,11.20
2023-02-16T18:42:39.361Z,11.20
2023-02-16T18:45:06.684Z,11.40
2023-02-16T18:47:33.795Z,11.30
2023-02-16T18:50:00.577Z,11.10
2023-02-16T18:52:27.469Z,11.30
2023-02-16T18:54:54.223Z,11.00
2023-02-16T18:57:22.763Z,11.00
2023-02-16T18:59:49.835Z,11.00
2023-02-16T19:02:16.629Z,11.10
2023-02-16T19:04:43.636Z,11.10
2023-02-16T19:07:10.505Z,11.10
2023-02-16T19:09:37.266Z,11.30
2023-02-16T19:12:04.218Z,11.30
2023-02-16T19:14:30.965Z,11.20
2023-02-16T19:16:57.797Z,11.20
2023-02-16T19:19:24.551Z,11.20
2023-02-16T19:21:51.304Z,11.20
2023-02-16T19:24:18.239Z,11.30
2023-02-16T19:26:45.349Z,11.20
2023-02-16T19:29:13.028Z,11.30
2023-02-16T19:31:39.887Z,11.00
2023-02-16T19:34:06.999Z,11.00
2023-02-16T19:36:34.247Z,11.00
2023-02-16T19:39:02.295Z,10.90
2023-02-16T19:41:31.971Z,10.90
2023-02-16T19:43:58.931Z,10.90
2023-02-16T19:46:26.270Z,11.10
2023-02-16T19:48:55.512Z,11.00
2023-02-16T19:51:23.000Z,10.90
2023-02-16T19:53:50.034Z,10.80
2023-02-16T19:56:21.253Z,10.80
2023-02-16T19:58:49.076Z,10.10
2023-02-16T20:01:20.890Z,10.90
2023-02-16T20:03:48.628Z,11.00
2023-02-16T20:06:30.716Z,11.00
2023-02-16T20:08:58.533Z,11.00
2023-02-16T20:11:27.685Z,11.10
2023-02-16T20:13:55.824Z,11.00
2023-02-16T20:16:23.844Z,11.90
2023-02-16T20:18:51.370Z,10.90
2023-02-16T20:21:23.777Z,10.70
2023-02-16T20:23:53.361Z,10.70
2023-02-16T20:26:22.938Z,10.60
2023-02-16T20:28:55.517Z,10.60
2023-02-16T20:31:32.823Z,10.50
2023-02-16T20:34:04.844Z,10.40
2023-02-16T20:36:33.608Z,10.30
2023-02-16T20:39:00.360Z,10.10
2023-02-16T20:41:27.194Z,10.20
2023-02-16T20:43:54.336Z,10.30
2023-02-16T20:46:23.678Z,7.90
2023-02-16T20:48:55.085Z,10.10
2023-02-16T20:51:22.121Z,10.10
2023-02-16T20:53:49.498Z,10.00
2023-02-16T20:56:21.492Z,10.10
2023-02-16T20:58:50.001Z,10.20
2023-02-16T21:01:22.458Z,10.10
2023-02-16T21:03:50.626Z,10.20
2023-02-16T21:06:17.743Z,10.10
2023-02-16T21:08:45.444Z,10.40
2023-02-16T21:11:12.515Z,10.10
2023-02-16T21:13:39.702Z,10.10
2023-02-16T21:16:07.722Z,10.10
2023-02-16T21:18:38.763Z,10.10
2023-02-16T21:21:07.918Z,10.10
2023-02-16T21:23:35.064Z,10.20
2023-02-16T21:26:04.731Z,10.10
2023-02-16T21:28:31.930Z,10.00
2023-02-16T21:31:05.357Z,10.00
2023-02-16T21:33:32.532Z,10.00
2023-02-16T21:36:09.923Z,10.10
2023-02-16T21:38:37.866Z,10.00
2023-02-16T21:41:30.250Z,9.90
2023-02-16T21:44:12.416Z,9.90
2023-02-16T21:46:45.203Z,10.00
2023-02-16T21:49:14.870Z,10.00
2023-02-16T21:51:43.338Z,10.00
2023-02-16T21:54:14.252Z,10.20
2023-02-16T21:56:50.329Z,10.20
2023-02-16T21:59:19.766Z,10.20
2023-02-16T22:01:51.482Z,10.20
2023-02-16T22:04:21.927Z,10.20
2023-02-16T22:06:53.511Z,10.20
2023-02-16T22:09:23.605Z,10.20
2023-02-16T22:11:51.093Z,10.10
2023-02-16T22:14:18.102Z,10.30
2023-02-16T22:16:46.903Z,10.20
2023-02-16T22:19:16.904Z,10.30
2023-02-16T22:21:45.150Z,10.20
2023-02-16T22:24:14.848Z,10.20
2023-02-16T22:26:42.117Z,11.00
2023-02-16T22:29:09.220Z,10.20
2023-02-16T22:31:37.201Z,10.20
2023-02-16T22:34:11.582Z,10.10
2023-02-16T22:36:40.285Z,10.10
2023-02-16T22:39:07.205Z,10.10
2023-02-16T22:41:34.909Z,10.30
2023-02-16T22:44:01.988Z,10.10
2023-02-16T22:46:30.073Z,10.10
2023-02-16T22:48:58.825Z,10.20
2023-02-16T22:51:29.202Z,10.40
2023-02-16T22:53:59.934Z,10.30
2023-02-16T22:56:27.045Z,10.10
2023-02-16T22:58:57.520Z,10.20
2023-02-16T23:01:24.990Z,10.20
2023-02-16T23:03:56.878Z,10.20
2023-02-16T23:06:27.284Z,10.10
2023-02-16T23:09:01.274Z,10.10
2023-02-16T23:11:28.405Z,10.10
2023-02-16T23:13:55.496Z,10.10
2023-02-16T23:16:24.661Z,10.20
2023-02-16T23:18:51.778Z,10.20
2023-02-16T23:21:21.255Z,10.20
2023-02-16T23:23:49.847Z,10.30
2023-02-16T23:26:17.543Z,10.50
2023-02-16T23:28:45.259Z,10.40
2023-02-16T23:31:12.960Z,10.40
2023-02-16T23:33:39.926Z,10.40
2023-02-16T23:36:07.279Z,10.60
2023-02-16T23:38:34.391Z,10.60
2023-02-16T23:41:13.567Z,10.40
2023-02-16T23:43:40.970Z,10.50
2023-02-16T23:46:09.842Z,10.60
2023-02-16T23:48:38.750Z,10.60
2023-02-16T23:51:05.835Z,10.80
2023-02-16T23:53:34.340Z,10.80
2023-02-16T23:56:05.471Z,10.70
2023-02-16T23:58:36.343Z,10.80
